createdAt,value
2018-09-14T00:01:42.444Z,11.52
2018-09-14T00:04:12.523Z,11.31
2018-09-14T00:06:42.642Z,11.54
2018-09-14T00:09:13.802Z,11.48
2018-09-14T00:11:44.133Z,11.21
2018-09-14T00:14:14.342Z,11.07
2018-09-14T00:16:44.244Z,11.50
2018-09-14T00:19:14.327Z,11.08
2018-09-14T00:21:45.158Z,11.27
2018-09-14T00:24:15.375Z,11.48
2018-09-14T00:26:45.358Z,11.82
2018-09-14T00:29:15.411Z,11.33
2018-09-14T00:31:45.381Z,11.50
2018-09-14T00:34:15.196Z,11.19
2018-09-14T00:36:45.242Z,11.34
2018-09-14T00:39:15.226Z,10.88
2018-09-14T00:41:45.553Z,11.35
2018-09-14T00:44:15.676Z,11.49
2018-09-14T00:46:46.193Z,11.78
2018-09-14T00:49:16.553Z,11.04
2018-09-14T00:51:46.577Z,10.95
2018-09-14T00:54:16.399Z,10.93
2018-09-14T00:56:46.392Z,11.32
2018-09-14T00:59:16.449Z,10.76
2018-09-14T01:01:46.599Z,11.21
2018-09-14T01:04:16.646Z,11.48
2018-09-14T01:06:46.570Z,11.45
2018-09-14T01:09:21.565Z,11.02
2018-09-14T01:11:51.584Z,10.85
2018-09-14T01:14:21.584Z,10.57
2018-09-14T01:16:51.487Z,10.53
2018-09-14T01:19:21.557Z,10.62
2018-09-14T01:21:51.786Z,10.62
2018-09-14T01:24:21.798Z,10.57
2018-09-14T01:26:51.818Z,10.88
2018-09-14T01:29:21.803Z,11.05
2018-09-14T01:31:51.946Z,11.36
2018-09-14T01:34:22.945Z,11.57
2018-09-14T01:36:52.892Z,11.58
2018-09-14T01:39:22.970Z,11.60
2018-09-14T01:41:52.922Z,11.72
2018-09-14T01:44:22.712Z,11.74
2018-09-14T01:46:52.747Z,11.81
2018-09-14T01:49:22.759Z,11.81
2018-09-14T01:51:52.784Z,11.81
2018-09-14T01:54:22.630Z,11.85
2018-09-14T01:56:52.947Z,11.88
2018-09-14T01:59:22.810Z,11.96
2018-09-14T02:01:52.887Z,11.72
2018-09-14T02:04:22.929Z,11.70
2018-09-14T02:06:53.014Z,11.88
2018-09-14T02:09:23.117Z,11.98
2018-09-14T02:11:53.093Z,11.81
2018-09-14T02:14:23.077Z,11.75
2018-09-14T02:16:52.944Z,11.78
2018-09-14T02:19:22.791Z,11.54
2018-09-14T02:21:52.880Z,11.44
2018-09-14T02:24:22.936Z,11.66
2018-09-14T02:26:52.984Z,11.59
2018-09-14T02:29:22.938Z,11.06
2018-09-14T02:31:52.988Z,10.39
2018-09-14T02:34:22.940Z,10.60
2018-09-14T02:36:53.004Z,10.54
2018-09-14T02:39:23.032Z,10.78
2018-09-14T02:41:54.093Z,11.14
2018-09-14T02:44:23.948Z,11.40
2018-09-14T02:46:57.073Z,11.50
2018-09-14T02:49:27.193Z,11.46
2018-09-14T02:51:57.103Z,11.53
2018-09-14T02:54:27.099Z,11.44
2018-09-14T02:56:57.205Z,11.08
2018-09-14T02:59:27.321Z,10.98
2018-09-14T03:01:57.328Z,10.83
2018-09-14T03:04:27.080Z,10.12
2018-09-14T03:06:57.090Z,10.35
2018-09-14T03:09:27.195Z,10.51
2018-09-14T03:11:57.534Z,10.54
2018-09-14T03:14:27.805Z,10.50
2018-09-14T03:16:57.923Z,10.61
2018-09-14T03:19:27.937Z,10.70
2018-09-14T03:21:57.969Z,10.92
2018-09-14T03:24:27.944Z,10.92
2018-09-14T03:26:57.900Z,10.09
2018-09-14T03:29:27.738Z,10.20
2018-09-14T03:31:57.757Z,10.25
2018-09-14T03:34:27.713Z,10.00
2018-09-14T03:36:57.792Z,9.74
2018-09-14T03:39:27.744Z,9.70
2018-09-14T03:41:57.789Z,9.68
2018-09-14T03:44:27.756Z,9.79
2018-09-14T03:46:57.683Z,9.68
2018-09-14T03:49:27.724Z,9.97
2018-09-14T03:51:57.801Z,9.83
2018-09-14T03:54:27.836Z,9.78
2018-09-14T03:56:57.964Z,9.89
2018-09-14T03:59:28.034Z,10.15
2018-09-14T04:01:58.034Z,10.61
2018-09-14T04:04:28.127Z,10.75
2018-09-14T04:06:58.143Z,10.58
2018-09-14T04:09:28.136Z,10.53
2018-09-14T04:11:58.796Z,10.43
2018-09-14T04:14:28.776Z,10.37
2018-09-14T04:16:58.840Z,9.98
2018-09-14T04:19:28.839Z,9.87
2018-09-14T04:21:58.926Z,10.00
2018-09-14T04:24:28.919Z,9.83
2018-09-14T04:26:59.027Z,9.68
2018-09-14T04:29:28.943Z,9.91
2018-09-14T04:31:58.909Z,9.91
2018-09-14T04:34:29.121Z,9.70
2018-09-14T04:36:59.024Z,9.99
2018-09-14T04:39:29.093Z,10.11
2018-09-14T04:41:59.068Z,9.94
2018-09-14T04:44:29.020Z,9.48
2018-09-14T04:46:59.052Z,9.60
2018-09-14T04:49:28.960Z,9.42
2018-09-14T04:51:58.990Z,9.41
2018-09-14T04:54:29.082Z,9.52
2018-09-14T04:56:58.994Z,9.67
2018-09-14T04:59:31.016Z,9.78
2018-09-14T05:02:06.584Z,9.45
2018-09-14T05:04:36.644Z,9.29
2018-09-14T05:07:06.609Z,9.30
2018-09-14T05:09:36.613Z,9.34
2018-09-14T05:12:06.855Z,9.33
2018-09-14T05:14:36.783Z,9.77
2018-09-14T05:17:06.807Z,10.02
2018-09-14T05:19:36.928Z,10.08
2018-09-14T05:22:06.814Z,10.13
2018-09-14T05:24:36.923Z,9.79
2018-09-14T05:27:06.826Z,9.82
2018-09-14T05:29:36.888Z,9.28
2018-09-14T05:32:07.090Z,9.64
2018-09-14T05:34:37.047Z,9.41
2018-09-14T05:37:07.240Z,9.78
2018-09-14T05:39:37.049Z,9.84
2018-09-14T05:42:07.004Z,9.94
2018-09-14T05:44:37.040Z,9.91
2018-09-14T05:47:07.643Z,9.52
2018-09-14T05:49:37.667Z,9.27
2018-09-14T05:52:07.888Z,9.12
2018-09-14T05:54:39.807Z,9.16
2018-09-14T05:57:09.817Z,9.22
2018-09-14T05:59:40.025Z,9.15
2018-09-14T06:02:10.057Z,9.32
2018-09-14T06:04:42.652Z,9.51
2018-09-14T06:07:13.312Z,9.41
2018-09-14T06:09:44.166Z,9.41
2018-09-14T06:12:14.258Z,9.63
2018-09-14T06:14:44.725Z,9.87
2018-09-14T06:17:15.327Z,9.98
2018-09-14T06:19:45.392Z,10.13
2018-09-14T06:22:15.518Z,10.20
2018-09-14T06:24:45.550Z,10.25
2018-09-14T06:27:15.776Z,10.28
2018-09-14T06:29:45.836Z,10.14
2018-09-14T06:32:15.834Z,9.87
2018-09-14T06:34:49.025Z,9.97
2018-09-14T06:37:19.109Z,10.15
2018-09-14T06:39:51.935Z,10.00
2018-09-14T06:42:21.986Z,9.98
2018-09-14T06:44:52.375Z,10.05
2018-09-14T06:47:22.478Z,9.99
2018-09-14T06:49:52.615Z,9.99
2018-09-14T06:52:22.588Z,9.99
2018-09-14T06:54:52.555Z,10.02
2018-09-14T06:57:23.565Z,10.06
2018-09-14T06:59:53.694Z,10.13
2018-09-14T07:02:23.683Z,10.28
2018-09-14T07:04:53.823Z,10.35
2018-09-14T07:07:23.991Z,10.33
2018-09-14T07:09:54.105Z,10.16
2018-09-14T07:12:24.260Z,10.23
2018-09-14T07:14:54.444Z,10.28
2018-09-14T07:17:26.132Z,10.47
2018-09-14T07:19:56.202Z,10.60
2018-09-14T07:22:26.202Z,10.65
2018-09-14T07:24:56.300Z,10.79
2018-09-14T07:27:26.241Z,10.83
2018-09-14T07:29:56.419Z,10.89
2018-09-14T07:32:26.479Z,11.00
2018-09-14T07:34:56.384Z,10.96
2018-09-14T07:37:26.471Z,11.13
2018-09-14T07:39:56.462Z,11.06
2018-09-14T07:42:26.509Z,11.06
2018-09-14T07:44:56.492Z,11.15
2018-09-14T07:47:26.542Z,11.14
2018-09-14T07:49:56.635Z,11.20
2018-09-14T07:52:26.650Z,11.34
2018-09-14T07:54:56.600Z,11.40
2018-09-14T07:57:26.660Z,11.46
2018-09-14T07:59:57.307Z,11.60
2018-09-14T08:02:28.259Z,11.71
2018-09-14T08:04:58.293Z,11.62
2018-09-14T08:07:28.382Z,11.84
2018-09-14T08:09:59.287Z,11.83
2018-09-14T08:12:29.439Z,12.05
2018-09-14T08:14:59.326Z,12.00
2018-09-14T08:17:29.203Z,12.01
2018-09-14T08:19:59.258Z,12.13
2018-09-14T08:22:29.117Z,12.14
2018-09-14T08:24:59.098Z,12.33
2018-09-14T08:27:29.024Z,12.30
2018-09-14T08:29:58.964Z,12.35
2018-09-14T08:32:29.036Z,12.42
2018-09-14T08:34:58.772Z,12.73
2018-09-14T08:37:28.775Z,12.98
2018-09-14T08:39:58.696Z,13.03
2018-09-14T08:42:29.233Z,12.95
2018-09-14T08:44:59.126Z,13.03
2018-09-14T08:47:29.034Z,13.05
2018-09-14T08:49:58.947Z,13.33
2018-09-14T08:52:28.959Z,13.66
2018-09-14T08:54:58.845Z,13.69
2018-09-14T08:57:28.780Z,13.79
2018-09-14T08:59:58.830Z,14.04
2018-09-14T09:02:28.708Z,13.84
2018-09-14T09:04:58.647Z,14.10
2018-09-14T09:07:28.643Z,14.39
2018-09-14T09:09:58.482Z,14.12
2018-09-14T09:12:28.420Z,14.20
2018-09-14T09:14:58.428Z,14.55
2018-09-14T09:20:04.927Z,14.57
2018-09-14T09:22:34.923Z,14.70
2018-09-14T09:25:05.275Z,14.97
2018-09-14T09:27:35.214Z,15.03
2018-09-14T09:30:05.205Z,14.98
2018-09-14T09:32:35.190Z,14.88
2018-09-14T09:35:05.160Z,14.92
2018-09-14T09:37:35.747Z,15.18
2018-09-14T09:40:19.040Z,15.55
2018-09-14T09:42:48.964Z,15.36
2018-09-14T09:45:18.959Z,15.55
2018-09-14T09:47:48.859Z,15.64
2018-09-14T09:50:18.792Z,15.58
2018-09-14T09:52:48.685Z,15.43
2018-09-14T09:55:18.580Z,15.41
2018-09-14T09:57:48.503Z,15.77
2018-09-14T10:00:23.446Z,15.82
2018-09-14T10:02:59.138Z,15.88
2018-09-14T10:05:34.227Z,15.74
2018-09-14T10:08:04.198Z,15.77
2018-09-14T10:10:34.140Z,16.40
2018-09-14T10:13:04.167Z,16.47
2018-09-14T10:15:34.227Z,16.23
2018-09-14T10:18:04.174Z,16.27
2018-09-14T10:20:34.126Z,16.28
2018-09-14T10:23:04.044Z,16.61
2018-09-14T10:25:34.019Z,16.78
2018-09-14T10:28:04.011Z,16.69
2018-09-14T10:30:33.944Z,16.80
2018-09-14T10:33:03.859Z,16.56
2018-09-14T10:35:33.750Z,16.53
2018-09-14T10:38:03.648Z,16.60
2018-09-14T10:40:33.589Z,16.60
2018-09-14T10:43:03.531Z,16.60
2018-09-14T10:45:33.417Z,17.00
2018-09-14T10:48:03.392Z,16.91
2018-09-14T10:50:33.706Z,16.85
2018-09-14T10:53:04.220Z,17.25
2018-09-14T10:55:34.068Z,17.19
2018-09-14T10:58:03.944Z,17.48
2018-09-14T11:00:35.300Z,17.51
2018-09-14T11:03:05.141Z,17.58
2018-09-14T11:05:35.024Z,17.29
2018-09-14T11:08:04.832Z,17.41
2018-09-14T11:10:34.819Z,17.32
2018-09-14T11:13:04.860Z,17.66
2018-09-14T11:15:34.731Z,17.51
2018-09-14T11:18:04.615Z,17.36
2018-09-14T11:20:34.616Z,17.34
2018-09-14T11:23:04.277Z,17.58
2018-09-14T11:25:34.387Z,17.67
2018-09-14T11:28:04.326Z,17.86
2018-09-14T11:30:34.299Z,18.10
2018-09-14T11:33:20.627Z,17.74
2018-09-14T11:35:52.220Z,18.08
2018-09-14T11:38:22.386Z,18.36
2018-09-14T11:41:12.329Z,18.41
2018-09-14T12:40:25.059Z,18.78
2018-09-14T12:42:54.892Z,18.90
2018-09-14T12:45:24.715Z,18.92
2018-09-14T12:47:54.607Z,18.69
2018-09-14T12:50:24.503Z,18.46
2018-09-14T12:52:54.359Z,18.46
2018-09-14T12:55:24.226Z,19.06
2018-09-14T12:58:19.414Z,19.14
2018-09-14T13:00:50.203Z,19.11
2018-09-14T13:03:20.034Z,19.61
2018-09-14T13:05:50.264Z,19.65
2018-09-14T13:08:20.048Z,19.83
2018-09-14T13:10:49.984Z,19.84
2018-09-14T13:13:19.857Z,19.78
2018-09-14T13:15:49.646Z,19.78
2018-09-14T13:18:19.471Z,19.89
2018-09-14T13:20:49.395Z,19.56
2018-09-14T13:23:19.201Z,19.53
2018-09-14T13:25:49.554Z,19.12
2018-09-14T13:28:19.419Z,19.12
2018-09-14T13:30:49.280Z,19.32
2018-09-14T13:33:19.034Z,19.21
2018-09-14T13:35:48.669Z,19.14
2018-09-14T13:38:18.376Z,18.98
2018-09-14T13:40:48.263Z,18.94
2018-09-14T13:43:17.866Z,18.97
2018-09-14T13:45:47.520Z,18.94
2018-09-14T13:48:17.237Z,18.90
2018-09-14T13:50:46.876Z,18.96
2018-09-14T13:53:16.526Z,19.19
2018-09-14T13:55:46.383Z,19.20
2018-09-14T13:58:16.139Z,19.40
2018-09-14T14:00:45.762Z,19.27
2018-09-14T14:03:15.630Z,19.38
2018-09-14T14:05:45.320Z,19.54
2018-09-14T14:08:14.962Z,19.55
2018-09-14T14:10:44.751Z,19.78
2018-09-14T14:13:14.496Z,19.91
2018-09-14T14:15:44.213Z,19.72
2018-09-14T14:18:13.844Z,19.71
2018-09-14T14:20:45.500Z,19.80
2018-09-14T14:23:15.414Z,19.97
2018-09-14T14:25:45.332Z,20.12
2018-09-14T14:28:15.268Z,20.00
2018-09-14T14:30:45.048Z,20.01
2018-09-14T14:33:14.835Z,20.10
2018-09-14T14:35:44.810Z,20.20
2018-09-14T14:38:14.807Z,20.17
2018-09-14T14:40:44.661Z,20.20
2018-09-14T14:43:14.461Z,20.15
2018-09-14T14:45:44.374Z,20.25
2018-09-14T14:48:14.265Z,20.32
2018-09-14T14:50:44.225Z,20.42
2018-09-14T14:53:14.154Z,20.16
2018-09-14T14:55:44.028Z,20.04
2018-09-14T14:58:13.940Z,20.12
2018-09-14T15:00:43.791Z,19.64
2018-09-14T15:03:13.756Z,20.03
2018-09-14T15:05:43.807Z,20.06
2018-09-14T15:08:13.781Z,19.98
2018-09-14T15:10:43.832Z,20.07
2018-09-14T15:13:13.764Z,19.76
2018-09-14T15:19:10.823Z,19.72
2018-09-14T16:07:20.669Z,19.59
2018-09-14T16:09:51.025Z,19.79
2018-09-14T16:12:21.369Z,19.69
2018-09-14T16:14:51.422Z,19.59
2018-09-14T16:17:21.647Z,19.41
2018-09-14T16:19:52.159Z,19.34
2018-09-14T16:22:22.026Z,19.23
2018-09-14T16:24:52.603Z,19.11
2018-09-14T16:27:22.552Z,19.40
2018-09-14T16:29:52.280Z,19.27
2018-09-14T16:32:22.415Z,19.27
2018-09-14T16:34:52.406Z,19.18
2018-09-14T16:37:22.382Z,19.15
2018-09-14T16:39:52.472Z,19.25
2018-09-14T16:42:22.472Z,19.13
2018-09-14T16:44:53.243Z,18.80
2018-09-14T16:47:23.397Z,19.03
2018-09-14T16:49:53.406Z,19.02
2018-09-14T16:52:23.361Z,18.84
2018-09-14T16:54:53.115Z,18.84
2018-09-14T16:57:23.107Z,18.78
2018-09-14T16:59:53.266Z,18.88
2018-09-14T17:02:23.436Z,18.76
2018-09-14T17:04:53.489Z,18.91
2018-09-14T17:07:23.487Z,18.71
2018-09-14T17:09:53.349Z,18.73
2018-09-14T17:12:23.292Z,18.68
2018-09-14T17:14:53.279Z,18.86
2018-09-14T17:17:23.358Z,18.74
2018-09-14T17:19:53.412Z,18.68
2018-09-14T17:22:23.239Z,18.59
2018-09-14T17:24:53.655Z,18.62
2018-09-14T17:27:23.374Z,18.31
2018-09-14T17:29:53.083Z,18.21
2018-09-14T17:32:23.099Z,18.44
2018-09-14T17:34:52.773Z,18.26
2018-09-14T17:37:22.591Z,18.19
2018-09-14T17:39:52.389Z,17.82
2018-09-14T17:42:22.325Z,17.65
2018-09-14T17:44:52.172Z,17.40
2018-09-14T17:47:22.103Z,17.55
2018-09-14T17:49:52.765Z,17.75
2018-09-14T17:52:23.152Z,17.78
2018-09-14T17:54:53.812Z,17.64
2018-09-14T17:57:23.648Z,17.55
2018-09-14T17:59:53.974Z,17.50
2018-09-14T18:02:23.844Z,17.40
2018-09-14T18:04:56.019Z,17.00
2018-09-14T18:07:25.910Z,16.90
2018-09-14T18:09:57.007Z,17.07
2018-09-14T18:12:28.175Z,16.94
2018-09-14T18:14:58.246Z,17.10
2018-09-14T18:17:28.551Z,17.21
2018-09-14T18:19:58.492Z,17.43
2018-09-14T18:22:29.247Z,17.01
2018-09-14T18:24:59.475Z,17.02
2018-09-14T18:27:29.696Z,16.79
2018-09-14T18:30:02.831Z,16.95
2018-09-14T18:32:33.560Z,16.89
2018-09-14T18:35:04.127Z,16.34
2018-09-14T18:37:34.140Z,16.09
2018-09-14T18:40:04.157Z,16.07
2018-09-14T18:42:34.231Z,16.13
2018-09-14T18:45:04.246Z,16.02
2018-09-14T18:47:35.326Z,16.16
2018-09-14T18:50:05.718Z,16.25
2018-09-14T18:52:36.206Z,16.31
2018-09-14T18:55:07.018Z,16.42
2018-09-14T18:57:36.946Z,16.62
2018-09-14T19:00:06.861Z,16.21
2018-09-14T19:02:37.305Z,16.33
2018-09-14T19:05:23.469Z,16.33
2018-09-14T19:07:54.774Z,15.93
2018-09-14T19:10:24.999Z,15.53
2018-09-14T19:12:55.097Z,15.95
2018-09-14T19:15:25.129Z,15.78
2018-09-14T19:17:55.189Z,15.61
2018-09-14T19:20:24.918Z,15.58
2018-09-14T19:22:55.022Z,15.81
2018-09-14T19:25:25.027Z,15.65
2018-09-14T19:27:55.234Z,15.91
2018-09-14T19:30:25.468Z,16.02
2018-09-14T19:32:55.837Z,15.70
2018-09-14T19:35:25.998Z,15.65
2018-09-14T19:37:57.038Z,15.51
2018-09-14T19:40:27.238Z,15.55
2018-09-14T19:42:57.473Z,15.69
2018-09-14T19:45:27.263Z,15.79
2018-09-14T19:47:57.284Z,15.61
2018-09-14T19:50:27.388Z,15.96
2018-09-14T19:52:57.508Z,15.72
2018-09-14T19:55:27.641Z,15.80
2018-09-14T19:57:57.643Z,15.52
2018-09-14T20:00:27.742Z,15.19
2018-09-14T20:02:58.794Z,15.32
2018-09-14T20:05:28.986Z,15.53
2018-09-14T20:07:59.161Z,15.84
2018-09-14T20:10:29.072Z,15.86
2018-09-14T20:12:59.555Z,15.87
2018-09-14T20:15:29.868Z,15.73
2018-09-14T20:17:59.852Z,14.99
2018-09-14T20:20:41.494Z,14.36
2018-09-14T20:23:11.347Z,14.43
2018-09-14T20:25:41.641Z,14.04
2018-09-14T20:28:11.779Z,14.42
2018-09-14T20:30:42.196Z,15.09
2018-09-14T20:33:12.329Z,14.68
2018-09-14T20:35:42.386Z,15.24
2018-09-14T20:38:12.423Z,15.54
2018-09-14T20:40:42.235Z,15.63
2018-09-14T20:43:12.265Z,15.68
2018-09-14T20:45:42.045Z,15.65
2018-09-14T20:48:12.246Z,14.88
2018-09-14T20:50:42.316Z,14.70
2018-09-14T20:53:12.400Z,14.48
2018-09-14T20:55:43.182Z,14.83
2018-09-14T20:58:13.451Z,15.21
2018-09-14T21:00:43.648Z,15.04
2018-09-14T21:03:13.713Z,15.35
2018-09-14T21:05:43.671Z,15.07
2018-09-14T21:08:13.756Z,15.09
2018-09-14T21:10:43.820Z,15.23
2018-09-14T21:13:13.739Z,15.33
2018-09-14T21:15:43.667Z,15.12
2018-09-14T21:18:13.733Z,15.26
2018-09-14T21:20:43.720Z,15.20
2018-09-14T21:23:13.887Z,14.97
2018-09-14T21:25:44.125Z,15.20
2018-09-14T21:28:14.277Z,15.37
2018-09-14T21:30:44.065Z,15.53
2018-09-14T21:33:13.953Z,15.58
2018-09-14T21:35:43.722Z,15.44
2018-09-14T21:38:13.577Z,15.20
2018-09-14T21:40:43.479Z,15.29
2018-09-14T21:43:13.284Z,14.93
2018-09-14T21:45:43.309Z,14.80
2018-09-14T21:48:13.240Z,14.95
2018-09-14T21:50:43.205Z,15.21
2018-09-14T21:53:13.077Z,15.07
2018-09-14T21:55:43.067Z,14.90
2018-09-14T21:58:13.015Z,14.69
2018-09-14T22:00:47.848Z,14.66
2018-09-14T22:03:17.704Z,14.70
2018-09-14T22:05:47.548Z,14.98
2018-09-14T22:08:30.031Z,15.13
2018-09-14T22:10:59.815Z,15.18
2018-09-14T22:13:29.608Z,15.07
2018-09-14T22:18:56.588Z,14.65
2018-09-14T22:21:26.595Z,14.72
2018-09-14T22:23:56.377Z,15.05
2018-09-14T22:26:26.143Z,15.10
2018-09-14T22:28:56.152Z,14.97
2018-09-14T22:31:26.139Z,15.12
2018-09-14T22:33:56.142Z,15.14
2018-09-14T22:36:26.111Z,14.64
2018-09-14T22:38:56.084Z,14.32
2018-09-14T22:41:25.904Z,14.48
2018-09-14T22:43:55.972Z,14.74
2018-09-14T22:46:25.967Z,14.27
2018-09-14T22:48:55.971Z,14.20
2018-09-14T22:51:26.030Z,14.14
2018-09-14T22:53:56.218Z,14.14
2018-09-14T22:56:26.154Z,14.21
2018-09-14T22:58:56.071Z,14.15
2018-09-14T23:01:26.131Z,14.49
2018-09-14T23:03:55.926Z,14.60
2018-09-14T23:06:25.672Z,14.69
2018-09-14T23:08:55.535Z,14.62
2018-09-14T23:11:25.564Z,14.47
2018-09-14T23:13:55.398Z,14.43
2018-09-14T23:16:25.426Z,14.29
2018-09-14T23:18:55.267Z,13.70
2018-09-14T23:21:25.229Z,13.76
2018-09-14T23:23:55.037Z,13.78
2018-09-14T23:26:25.603Z,13.64
2018-09-14T23:28:55.467Z,13.44
2018-09-14T23:31:25.494Z,13.39
2018-09-14T23:33:55.535Z,13.92
2018-09-14T23:36:25.411Z,13.89
2018-09-14T23:38:55.175Z,13.26
2018-09-14T23:41:25.156Z,13.18
2018-09-14T23:43:55.076Z,13.22
2018-09-14T23:46:25.139Z,13.26
2018-09-14T23:48:54.976Z,13.34
2018-09-14T23:51:24.885Z,13.84
2018-09-14T23:53:54.867Z,13.91
2018-09-14T23:56:24.737Z,14.11
2018-09-14T23:58:54.733Z,13.55
